createdAt,value
2018-06-29T00:03:13.937Z,1.82
2018-06-29T00:08:17.201Z,1.72
2018-06-29T00:13:20.109Z,2.17
2018-06-29T00:18:22.780Z,2.10
2018-06-29T00:23:26.572Z,2.00
2018-06-29T00:28:29.790Z,1.77
2018-06-29T00:33:32.824Z,1.85
2018-06-29T00:38:35.609Z,1.95
2018-06-29T00:43:38.451Z,1.90
2018-06-29T00:48:41.546Z,1.70
2018-06-29T00:53:44.476Z,2.00
2018-06-29T00:58:47.045Z,1.87
2018-06-29T01:03:49.575Z,1.85
2018-06-29T01:08:53.078Z,1.98
2018-06-29T01:13:55.945Z,1.85
2018-06-29T01:18:58.433Z,1.90
2018-06-29T01:24:01.513Z,1.70
2018-06-29T01:29:04.709Z,1.87
2018-06-29T01:34:07.243Z,1.98
2018-06-29T01:39:10.546Z,1.70
2018-06-29T01:44:13.081Z,1.80
2018-06-29T01:49:15.716Z,1.82
2018-06-29T01:54:18.254Z,1.87
2018-06-29T01:59:20.828Z,2.00
2018-06-29T02:04:23.393Z,1.95
2018-06-29T02:09:26.464Z,1.80
2018-06-29T02:14:28.932Z,1.90
2018-06-29T02:19:31.440Z,2.00
2018-06-29T02:24:34.036Z,2.15
2018-06-29T02:29:37.556Z,2.00
2018-06-29T02:34:40.153Z,2.00
2018-06-29T02:39:42.702Z,1.90
2018-06-29T02:44:46.105Z,1.95
2018-06-29T02:49:48.861Z,1.87
2018-06-29T02:54:51.821Z,1.98
2018-06-29T02:59:54.228Z,1.90
2018-06-29T03:04:56.860Z,1.98
2018-06-29T03:09:59.891Z,2.12
2018-06-29T03:15:06.433Z,1.90
2018-06-29T03:20:08.961Z,2.22
2018-06-29T03:25:11.373Z,2.15
2018-06-29T03:30:13.826Z,2.10
2018-06-29T03:35:16.285Z,2.30
2018-06-29T03:40:18.744Z,2.27
2018-06-29T03:45:21.263Z,2.10
2018-06-29T03:50:23.696Z,2.12
2018-06-29T03:55:26.742Z,2.05
2018-06-29T04:00:29.607Z,2.10
2018-06-29T04:05:32.249Z,2.10
2018-06-29T04:10:35.301Z,2.00
2018-06-29T04:15:38.755Z,2.37
2018-06-29T04:20:42.535Z,2.20
2018-06-29T04:25:45.732Z,2.08
2018-06-29T04:30:48.329Z,2.30
2018-06-29T04:35:51.733Z,2.08
2018-06-29T04:40:55.326Z,2.22
2018-06-29T04:45:58.303Z,2.05
2018-06-29T04:51:01.846Z,2.22
2018-06-29T04:56:05.734Z,2.30
2018-06-29T05:01:08.637Z,2.12
2018-06-29T05:06:12.337Z,2.10
2018-06-29T05:11:15.231Z,2.00
2018-06-29T05:16:18.213Z,2.05
2018-06-29T05:21:21.994Z,2.20
2018-06-29T05:26:25.969Z,1.90
2018-06-29T05:31:28.976Z,2.00
2018-06-29T05:36:31.433Z,1.85
2018-06-29T05:41:35.149Z,1.95
2018-06-29T05:46:39.439Z,1.92
2018-06-29T05:51:43.985Z,2.20
2018-06-29T05:56:48.671Z,1.90
2018-06-29T06:01:52.622Z,2.02
2018-06-29T06:06:57.271Z,1.90
2018-06-29T06:12:00.614Z,1.77
2018-06-29T06:17:04.120Z,1.50
2018-06-29T06:22:07.358Z,1.40
2018-06-29T06:27:12.613Z,2.02
2018-06-29T06:32:17.592Z,1.90
2018-06-29T06:37:21.503Z,2.10
2018-06-29T06:42:25.555Z,1.50
2018-06-29T06:47:29.581Z,1.80
2018-06-29T06:52:32.485Z,2.10
2018-06-29T06:57:35.861Z,1.60
2018-06-29T07:02:39.157Z,1.30
2018-06-29T07:07:42.275Z,1.45
2018-06-29T07:12:44.752Z,1.35
2018-06-29T07:17:48.352Z,1.45
2018-06-29T07:22:54.600Z,1.62
2018-06-29T07:27:57.760Z,1.50
2018-06-29T07:33:06.553Z,1.30
2018-06-29T07:38:09.153Z,1.20
2018-06-29T07:43:12.577Z,1.20
2018-06-29T07:48:15.384Z,1.60
2018-06-29T07:53:21.581Z,1.10
2018-06-29T07:58:27.762Z,1.27
2018-06-29T08:03:35.725Z,1.35
2018-06-29T08:08:41.349Z,1.40
2018-06-29T08:13:52.932Z,1.30
2018-06-29T08:19:14.125Z,1.57
2018-06-29T08:24:25.477Z,1.20
2018-06-29T08:29:29.430Z,1.50
2018-06-29T08:34:32.519Z,1.47
2018-06-29T08:39:53.241Z,1.17
2018-06-29T08:54:39.292Z,1.40
2018-06-29T08:59:44.163Z,1.30
2018-06-29T09:05:10.652Z,1.50
2018-06-29T09:10:15.260Z,1.33
2018-06-29T09:15:19.152Z,1.50
2018-06-29T09:20:23.471Z,1.43
2018-06-29T09:25:27.467Z,1.22
2018-06-29T09:30:33.537Z,1.22
2018-06-29T09:35:36.025Z,1.30
2018-06-29T09:40:38.532Z,2.05
2018-06-29T09:45:41.041Z,1.70
2018-06-29T09:50:44.398Z,1.57
2018-06-29T09:55:47.308Z,1.60
2018-06-29T10:00:55.412Z,1.80
2018-06-29T10:05:54.491Z,1.50
2018-06-29T10:10:57.753Z,1.62
2018-06-29T10:16:00.362Z,1.52
2018-06-29T10:21:04.935Z,1.40
2018-06-29T10:26:15.176Z,1.10
2018-06-29T10:31:18.680Z,1.20
2018-06-29T10:36:21.399Z,1.20
2018-06-29T10:41:23.892Z,1.52
2018-06-29T10:46:26.599Z,1.22
2018-06-29T10:51:29.888Z,1.22
2018-06-29T10:56:33.424Z,1.60
2018-06-29T11:01:37.393Z,1.55
2018-06-29T11:06:40.277Z,1.35
2018-06-29T11:11:42.861Z,1.70
2018-06-29T11:16:45.873Z,1.40
2018-06-29T11:21:48.273Z,1.17
2018-06-29T11:26:50.701Z,1.15
2018-06-29T11:31:53.339Z,1.13
2018-06-29T11:36:58.358Z,1.42
2018-06-29T11:42:01.299Z,1.30
2018-06-29T11:47:04.012Z,1.37
2018-06-29T11:52:06.990Z,0.82
2018-06-29T11:57:09.555Z,1.20
2018-06-29T12:02:12.291Z,1.20
2018-06-29T12:07:16.093Z,1.00
2018-06-29T12:12:19.837Z,1.00
2018-06-29T12:17:23.533Z,1.02
2018-06-29T12:22:26.557Z,1.15
2018-06-29T12:27:30.869Z,1.22
2018-06-29T12:32:40.141Z,1.10
2018-06-29T12:37:43.023Z,2.00
2018-06-29T12:42:46.685Z,1.22
2018-06-29T12:47:50.835Z,1.30
2018-06-29T12:52:54.111Z,1.25
2018-06-29T12:59:56.385Z,1.22
2018-06-29T13:05:09.997Z,1.05
2018-06-29T13:10:13.102Z,1.07
2018-06-29T13:15:16.929Z,1.10
2018-06-29T13:20:19.923Z,1.20
2018-06-29T13:25:22.943Z,1.07
2018-06-29T13:30:25.994Z,1.20
2018-06-29T13:35:28.737Z,1.30
2018-06-29T13:40:34.674Z,1.00
2018-06-29T13:45:38.562Z,1.25
2018-06-29T13:50:41.204Z,1.20
2018-06-29T13:55:44.150Z,1.10
2018-06-29T14:00:49.847Z,1.10
2018-06-29T14:05:55.958Z,1.07
2018-06-29T14:10:58.863Z,1.83
2018-06-29T14:16:01.829Z,1.10
2018-06-29T14:21:04.830Z,1.17
2018-06-29T14:26:07.639Z,1.65
2018-06-29T14:31:13.945Z,1.62
2018-06-29T14:36:16.955Z,1.60
2018-06-29T14:41:22.954Z,1.80
2018-06-29T14:46:25.820Z,1.42
2018-06-29T14:51:30.785Z,1.30
2018-06-29T14:56:33.714Z,2.22
2018-06-29T15:01:37.513Z,2.05
2018-06-29T15:06:40.614Z,1.90
2018-06-29T15:11:43.426Z,1.40
2018-06-29T15:16:46.539Z,1.47
2018-06-29T15:21:58.212Z,1.10
2018-06-29T15:27:02.271Z,1.17
2018-06-29T15:32:05.913Z,1.35
2018-06-29T15:37:13.164Z,1.07
2018-06-29T15:42:16.366Z,1.10
2018-06-29T15:47:19.665Z,1.00
2018-06-29T15:52:22.688Z,1.27
2018-06-29T15:57:26.229Z,0.93
2018-06-29T16:02:29.731Z,1.10
2018-06-29T16:07:32.804Z,1.82
2018-06-29T16:12:36.765Z,1.00
2018-06-29T16:17:39.772Z,1.17
2018-06-29T16:22:44.301Z,1.20
2018-06-29T16:44:38.748Z,1.00
2018-06-29T16:49:41.696Z,1.32
2018-06-29T16:54:44.649Z,1.30
2018-06-29T16:59:48.641Z,1.20
2018-06-29T17:04:52.677Z,1.10
2018-06-29T17:09:57.366Z,1.07
2018-06-29T17:20:12.129Z,1.00
2018-06-29T17:25:16.195Z,1.37
2018-06-29T17:30:19.679Z,1.07
2018-06-29T17:35:22.615Z,0.97
2018-06-29T17:40:25.481Z,1.00
2018-06-29T17:45:28.571Z,1.20
2018-06-29T17:50:31.577Z,1.40
2018-06-29T17:55:34.549Z,1.20
2018-06-29T18:00:40.708Z,1.20
2018-06-29T18:05:43.880Z,1.12
2018-06-29T18:10:47.358Z,1.30
2018-06-29T18:15:50.371Z,1.55
2018-06-29T18:20:53.990Z,1.37
2018-06-29T18:25:57.068Z,1.17
2018-06-29T18:31:00.144Z,1.07
2018-06-29T18:36:03.261Z,1.10
2018-06-29T18:41:08.114Z,1.42
2018-06-29T18:46:11.251Z,1.45
2018-06-29T18:51:14.318Z,1.57
2018-06-29T18:56:17.691Z,1.50
2018-06-29T19:01:21.182Z,1.70
2018-06-29T19:06:23.936Z,1.60
2018-06-29T19:11:28.638Z,2.35
2018-06-29T19:16:32.813Z,2.10
2018-06-29T19:21:35.815Z,1.80
2018-06-29T19:26:38.558Z,1.98
2018-06-29T19:31:43.025Z,1.95
2018-06-29T19:36:45.909Z,1.80
2018-06-29T19:41:50.841Z,1.87
2018-06-29T19:46:53.639Z,1.67
2018-06-29T19:51:57.249Z,1.90
2018-06-29T19:57:01.121Z,1.70
2018-06-29T20:02:04.171Z,2.00
2018-06-29T20:07:07.178Z,2.50
2018-06-29T20:12:10.197Z,2.17
2018-06-29T20:17:14.112Z,2.25
2018-06-29T20:22:17.148Z,2.58
2018-06-29T20:27:21.890Z,1.82
2018-06-29T20:32:25.434Z,2.90
2018-06-29T20:37:28.110Z,2.33
2018-06-29T20:42:30.933Z,2.85
2018-06-29T20:47:34.708Z,2.30
2018-06-29T20:52:37.489Z,2.20
2018-06-29T20:57:40.253Z,2.35
2018-06-29T21:02:43.009Z,2.90
2018-06-29T21:07:45.839Z,2.83
2018-06-29T21:12:48.692Z,2.37
2018-06-29T21:17:51.656Z,1.90
2018-06-29T21:22:54.549Z,1.87
2018-06-29T21:27:57.435Z,2.42
2018-06-29T21:33:00.460Z,2.17
2018-06-29T21:38:03.358Z,1.98
2018-06-29T21:43:08.521Z,2.42
2018-06-29T21:48:11.479Z,2.00
2018-06-29T21:53:15.304Z,1.90
2018-06-29T21:58:19.266Z,1.87
2018-06-29T22:03:22.655Z,1.92
2018-06-29T22:08:26.175Z,1.80
2018-06-29T22:13:28.916Z,2.05
2018-06-29T22:18:31.805Z,2.02
2018-06-29T22:23:34.703Z,1.75
2018-06-29T22:28:37.746Z,1.82
2018-06-29T22:33:40.397Z,1.75
2018-06-29T22:38:43.330Z,2.02
2018-06-29T22:43:46.845Z,2.20
2018-06-29T22:48:49.596Z,1.82
2018-06-29T22:53:52.329Z,2.20
2018-06-29T22:58:55.160Z,1.90
2018-06-29T23:03:57.766Z,1.80
2018-06-29T23:09:00.461Z,1.82
2018-06-29T23:14:04.665Z,1.90
2018-06-29T23:19:08.425Z,1.92
2018-06-29T23:24:10.992Z,1.92
2018-06-29T23:29:13.810Z,1.40
2018-06-29T23:34:16.653Z,1.80
2018-06-29T23:39:20.399Z,1.95
2018-06-29T23:44:23.074Z,1.70
2018-06-29T23:49:25.658Z,1.40
2018-06-29T23:54:28.474Z,1.90
2018-06-29T23:59:31.198Z,1.70
